Aviation Digital Data Service (ADDS)

Output produced by METARs form (1353 UTC 18 January 2018)
found at http://www.aviationweather.gov/adds/metars/
 
KAOO 181253Z AUTO 22011KT 10SM CLR M08/M17 A3010 RMK AO2 SLP220 T10781167
KAOO 181153Z AUTO 23011KT 10SM CLR M08/M16 A3010 RMK AO2 SLP223 T10831161 11083 21122 56009
KAOO 181053Z AUTO 26011KT 10SM CLR M09/M16 A3011 RMK AO2 SLP226 T10941161
KAOO 180953Z AUTO 26009KT 10SM CLR M09/M16 A3012 RMK AO2 SLP228 T10941156
KAOO 180853Z AUTO 25004KT 10SM FEW110 M11/M16 A3013 RMK AO2 SLP232 T11061161 58014
KAOO 180753Z AUTO 29010KT 10SM CLR M11/M17 A3015 RMK AO2 SLP239 T11111167
KAOO 180653Z AUTO 24004KT 10SM CLR M12/M17 A3016 RMK AO2 SLP243 T11171167
KAOO 180553Z AUTO 25007KT 10SM CLR M12/M16 A3017 RMK AO2 SLP248 T11171156 11106 21144 58018
KAOO 180453Z AUTO 23006KT 10SM CLR M13/M16 A3020 RMK AO2 SLP258 T11281161 410671139
KAOO 180353Z AUTO 24005KT 10SM CLR M13/M16 A3022 RMK AO2 SLP266 T11281161
KAOO 180308Z AUTO 28005KT 10SM FEW019 M12/M16 A3023 RMK AO2 T11171156
KAOO 180253Z AUTO 28006KT 10SM BKN018 M12/M16 A3023 RMK AO2 SLP271 T11171156 58014
KAOO 180153Z AUTO 28005KT 10SM OVC019 M11/M15 A3025 RMK AO2 SLP276 T11111150
KAOO 180053Z AUTO 28007KT 10SM OVC019 M12/M16 A3026 RMK AO2 SLP281 T11171156
KAOO 172353Z AUTO 31009KT 10SM OVC020 M11/M15 A3027 RMK AO2 SLP285 T11061150 11083 21122 50001
KAOO 172253Z AUTO 31012KT 10SM OVC021 M11/M15 A3028 RMK AO2 SLP284 T11061150
KAOO 172215Z AUTO 29007KT 10SM BKN024 M11/M15 A3028 RMK AO2 T11111150
KAOO 172153Z AUTO 31008KT 10SM FEW024 M10/M15 A3028 RMK AO2 SLP284 T11001150
KAOO 172053Z AUTO 31011KT 10SM CLR M09/M14 A3027 RMK AO2 SLP281 T10891144 56014
KAOO 171953Z AUTO 31009KT 10SM CLR M08/M15 A3028 RMK AO2 SLP284 T10831150
KAOO 171853Z AUTO 30009KT 10SM CLR M09/M15 A3030 RMK AO2 SLP292 T10941150
KAOO 171753Z AUTO 29010KT 10SM CLR M10/M16 A3032 RMK AO2 SLP295 T11001161 11100 21139 58023
KAOO 171653Z AUTO 30011KT 10SM CLR M11/M17 A3035 RMK AO2 SLP307 T11111167
KAOO 171553Z AUTO 31007KT 10SM CLR M12/M17 A3038 RMK AO2 SLP317 T11221172
KAOO 171453Z AUTO 32010KT 10SM FEW012 M13/M17 A3039 RMK AO2 SLP318 T11331172 53007
KAOO 171353Z AUTO 30011KT 9SM CLR M14/M17 A3037 RMK AO2 SLP314 T11391167
KAOO 171253Z AUTO 32007KT 7SM CLR M14/M17 A3036 RMK AO2 SLP310 T11391172
KAOO 171153Z AUTO 32009KT 10SM OVC080 M13/M16 A3036 RMK AO2 SLP310 60000 70007 T11281161 11083 21128 53007
KAOO 171053Z AUTO 32011KT 9SM OVC070 M11/M15 A3035 RMK AO2 SLP305 T11111150
KAOO 170953Z AUTO 31012KT 10SM BKN075 OVC095 M11/M14 A3033 RMK AO2 SLP299 T11111144
KAOO 170853Z AUTO 32008KT 8SM FEW018 BKN075 OVC095 M11/M14 A3034 RMK AO2 SLP301 60000 T11061144 51006
KAOO 170753Z AUTO 32006KT 7SM SCT060 OVC075 M10/M13 A3034 RMK AO2 SNE50 SLP301 P0000 T11001133
KAOO 170653Z AUTO 31010KT 5SM -SN OVC050 M09/M12 A3034 RMK AO2 SLP298 P0000 T10941122
KAOO 170553Z AUTO 31010KT 4SM -SN FEW020 OVC035 M08/M11 A3032 RMK AO2 SLP293 P0000 60001 T10831111 11033 21083 50003
KAOO 170541Z AUTO 31010KT 3SM -SN FEW020 OVC031 M08/M11 A3033 RMK AO2 P0000 T10781111
KAOO 170533Z AUTO 32009KT 3SM -SN SCT020 OVC029 M08/M11 A3033 RMK AO2 P0000 T10781111
KAOO 170502Z AUTO 30013KT 2 1/2SM -SN OVC034 M07/M10 A3034 RMK AO2 P0000 T10671100
KAOO 170453Z AUTO 31014KT 3SM -SN BKN038 OVC047 M07/M10 A3033 RMK AO2 SLP296 P0000 T10671100 410281067
KAOO 170353Z AUTO 30010KT 6SM -SN SCT034 OVC049 M05/M08 A3032 RMK AO2 SNB0256 SLP291 P0000 T10501078
KAOO 170253Z AUTO 30008KT 7SM OVC031 M04/M06 A3032 RMK AO2 SNE49 SLP287 P0000 60001 T10391061 50003
KAOO 170238Z AUTO 31006KT 5SM -SN BR OVC031 M04/M06 A3031 RMK AO2 P0000 T10391056
KAOO 170214Z AUTO 30004KT 3SM -SN BR OVC027 M04/M05 A3032 RMK AO2 P0000 T10391050